sensor_id;sensor_type;location;lat;lon;timestamp;P1;P2;P0
28026;PMS5003;15344;52.342;-1.290;2023-11-21T00:01:05;19;13;
28026;PMS5003;15344;52.342;-1.290;2023-11-21T00:03:29;12;9;
28026;PMS5003;15344;52.342;-1.290;2023-11-21T00:05:55;13;10;
28026;PMS5003;15344;52.342;-1.290;2023-11-21T00:08:20;17;14;
28026;PMS5003;15344;52.342;-1.290;2023-11-21T00:10:46;19;12;
28026;PMS5003;15344;52.342;-1.290;2023-11-21T00:13:11;18;12;
28026;PMS5003;15344;52.342;-1.290;2023-11-21T00:15:37;17;13;
28026;PMS5003;15344;52.342;-1.290;2023-11-21T00:18:02;13;11;
28026;PMS5003;15344;52.342;-1.290;2023-11-21T00:20:27;18;14;
28026;PMS5003;15344;52.342;-1.290;2023-11-21T00:22:53;15;11;
28026;PMS5003;15344;52.342;-1.290;2023-11-21T00:25:19;11;10;
28026;PMS5003;15344;52.342;-1.290;2023-11-21T00:27:44;10;10;
28026;PMS5003;15344;52.342;-1.290;2023-11-21T00:30:11;13;10;
28026;PMS5003;15344;52.342;-1.290;2023-11-21T00:32:36;11;11;
28026;PMS5003;15344;52.342;-1.290;2023-11-21T00:35:01;15;12;
28026;PMS5003;15344;52.342;-1.290;2023-11-21T00:37:26;12;10;
28026;PMS5003;15344;52.342;-1.290;2023-11-21T00:39:52;14;11;
28026;PMS5003;15344;52.342;-1.290;2023-11-21T00:42:18;23;14;
28026;PMS5003;15344;52.342;-1.290;2023-11-21T00:44:43;14;9;
28026;PMS5003;15344;52.342;-1.290;2023-11-21T00:47:08;14;11;
28026;PMS5003;15344;52.342;-1.290;2023-11-21T00:49:33;10;8;
28026;PMS5003;15344;52.342;-1.290;2023-11-21T00:51:59;15;10;
28026;PMS5003;15344;52.342;-1.290;2023-11-21T00:54:24;14;10;
28026;PMS5003;15344;52.342;-1.290;2023-11-21T00:56:49;9;9;
28026;PMS5003;15344;52.342;-1.290;2023-11-21T00:59:14;12;11;
28026;PMS5003;15344;52.342;-1.290;2023-11-21T01:01:40;13;10;
28026;PMS5003;15344;52.342;-1.290;2023-11-21T01:04:05;6;6;
28026;PMS5003;15344;52.342;-1.290;2023-11-21T01:06:31;14;7;
28026;PMS5003;15344;52.342;-1.290;2023-11-21T01:08:56;11;9;
28026;PMS5003;15344;52.342;-1.290;2023-11-21T01:11:21;9;9;
28026;PMS5003;15344;52.342;-1.290;2023-11-21T01:13:47;9;7;
28026;PMS5003;15344;52.342;-1.290;2023-11-21T01:16:12;10;7;
28026;PMS5003;15344;52.342;-1.290;2023-11-21T01:18:38;9;9;
28026;PMS5003;15344;52.342;-1.290;2023-11-21T01:21:03;9;7;
28026;PMS5003;15344;52.342;-1.290;2023-11-21T01:23:28;7;7;
28026;PMS5003;15344;52.342;-1.290;2023-11-21T01:25:55;8;8;
28026;PMS5003;15344;52.342;-1.290;2023-11-21T01:28:19;7;6;
28026;PMS5003;15344;52.342;-1.290;2023-11-21T01:30:45;7;7;
28026;PMS5003;15344;52.342;-1.290;2023-11-21T01:33:10;7;7;
28026;PMS5003;15344;52.342;-1.290;2023-11-21T01:35:35;5;5;
28026;PMS5003;15344;52.342;-1.290;2023-11-21T01:38:01;7;6;
28026;PMS5003;15344;52.342;-1.290;2023-11-21T01:40:26;4;4;
28026;PMS5003;15344;52.342;-1.290;2023-11-21T01:42:52;4;4;
28026;PMS5003;15344;52.342;-1.290;2023-11-21T01:45:17;6;4;
28026;PMS5003;15344;52.342;-1.290;2023-11-21T01:47:42;6;4;
28026;PMS5003;15344;52.342;-1.290;2023-11-21T01:50:08;6;6;
28026;PMS5003;15344;52.342;-1.290;2023-11-21T01:52:32;7;7;
28026;PMS5003;15344;52.342;-1.290;2023-11-21T01:54:58;6;5;
28026;PMS5003;15344;52.342;-1.290;2023-11-21T01:57:23;6;6;
28026;PMS5003;15344;52.342;-1.290;2023-11-21T01:59:49;5;4;
28026;PMS5003;15344;52.342;-1.290;2023-11-21T02:02:14;8;6;
28026;PMS5003;15344;52.342;-1.290;2023-11-21T02:04:39;5;4;
28026;PMS5003;15344;52.342;-1.290;2023-11-21T02:07:05;5;5;
28026;PMS5003;15344;52.342;-1.290;2023-11-21T02:09:30;5;5;
28026;PMS5003;15344;52.342;-1.290;2023-11-21T02:11:55;7;6;
28026;PMS5003;15344;52.342;-1.290;2023-11-21T02:14:21;9;5;
28026;PMS5003;15344;52.342;-1.290;2023-11-21T02:16:46;6;5;
28026;PMS5003;15344;52.342;-1.290;2023-11-21T02:19:11;3;3;
28026;PMS5003;15344;52.342;-1.290;2023-11-21T02:21:36;4;4;
28026;PMS5003;15344;52.342;-1.290;2023-11-21T02:24:02;4;4;
28026;PMS5003;15344;52.342;-1.290;2023-11-21T02:26:27;4;4;
28026;PMS5003;15344;52.342;-1.290;2023-11-21T02:28:53;4;4;
28026;PMS5003;15344;52.342;-1.290;2023-11-21T02:31:18;6;4;
28026;PMS5003;15344;52.342;-1.290;2023-11-21T02:33:43;4;4;
28026;PMS5003;15344;52.342;-1.290;2023-11-21T02:36:09;3;2;
28026;PMS5003;15344;52.342;-1.290;2023-11-21T02:38:34;6;4;
28026;PMS5003;15344;52.342;-1.290;2023-11-21T02:40:59;3;3;
28026;PMS5003;15344;52.342;-1.290;2023-11-21T02:43:24;3;2;
28026;PMS5003;15344;52.342;-1.290;2023-11-21T02:45:50;6;4;
28026;PMS5003;15344;52.342;-1.290;2023-11-21T02:48:15;3;3;
28026;PMS5003;15344;52.342;-1.290;2023-11-21T02:50:41;5;2;
28026;PMS5003;15344;52.342;-1.290;2023-11-21T02:53:06;2;2;
28026;PMS5003;15344;52.342;-1.290;2023-11-21T02:55:31;2;2;
28026;PMS5003;15344;52.342;-1.290;2023-11-21T02:57:57;2;2;
28026;PMS5003;15344;52.342;-1.290;2023-11-21T03:00:27;2;2;
28026;PMS5003;15344;52.342;-1.290;2023-11-21T03:02:47;2;2;
28026;PMS5003;15344;52.342;-1.290;2023-11-21T03:05:12;1;1;
28026;PMS5003;15344;52.342;-1.290;2023-11-21T03:07:38;3;3;
28026;PMS5003;15344;52.342;-1.290;2023-11-21T03:10:03;1;1;
28026;PMS5003;15344;52.342;-1.290;2023-11-21T03:12:28;1;1;
28026;PMS5003;15344;52.342;-1.290;2023-11-21T03:14:54;1;1;
28026;PMS5003;15344;52.342;-1.290;2023-11-21T03:17:19;2;2;
28026;PMS5003;15344;52.342;-1.290;2023-11-21T03:19:45;1;1;
28026;PMS5003;15344;52.342;-1.290;2023-11-21T03:22:10;2;2;
28026;PMS5003;15344;52.342;-1.290;2023-11-21T03:24:35;2;2;
28026;PMS5003;15344;52.342;-1.290;2023-11-21T03:27:00;1;1;
28026;PMS5003;15344;52.342;-1.290;2023-11-21T03:29:26;1;1;
28026;PMS5003;15344;52.342;-1.290;2023-11-21T03:31:51;2;2;
28026;PMS5003;15344;52.342;-1.290;2023-11-21T03:34:19;4;2;
28026;PMS5003;15344;52.342;-1.290;2023-11-21T03:36:43;3;3;
28026;PMS5003;15344;52.342;-1.290;2023-11-21T03:39:07;2;2;
28026;PMS5003;15344;52.342;-1.290;2023-11-21T03:41:32;2;2;
28026;PMS5003;15344;52.342;-1.290;2023-11-21T03:43:58;1;1;
28026;PMS5003;15344;52.342;-1.290;2023-11-21T03:46:23;3;2;
28026;PMS5003;15344;52.342;-1.290;2023-11-21T03:48:48;4;2;
28026;PMS5003;15344;52.342;-1.290;2023-11-21T03:51:14;2;2;
28026;PMS5003;15344;52.342;-1.290;2023-11-21T03:53:44;2;2;
28026;PMS5003;15344;52.342;-1.290;2023-11-21T03:56:05;1;1;
28026;PMS5003;15344;52.342;-1.290;2023-11-21T03:58:30;0;0;
28026;PMS5003;15344;52.342;-1.290;2023-11-21T04:00:55;1;1;
28026;PMS5003;15344;52.342;-1.290;2023-11-21T04:03:21;0;0;
28026;PMS5003;15344;52.342;-1.290;2023-11-21T04:05:46;1;1;
28026;PMS5003;15344;52.342;-1.290;2023-11-21T04:08:12;0;0;
28026;PMS5003;15344;52.342;-1.290;2023-11-21T04:10:36;0;0;
28026;PMS5003;15344;52.342;-1.290;2023-11-21T04:13:02;1;1;
28026;PMS5003;15344;52.342;-1.290;2023-11-21T04:15:27;0;0;
28026;PMS5003;15344;52.342;-1.290;2023-11-21T04:17:52;2;2;
28026;PMS5003;15344;52.342;-1.290;2023-11-21T04:20:18;0;0;
28026;PMS5003;15344;52.342;-1.290;2023-11-21T04:22:43;1;1;
28026;PMS5003;15344;52.342;-1.290;2023-11-21T04:25:08;1;1;
28026;PMS5003;15344;52.342;-1.290;2023-11-21T04:27:34;2;0;
28026;PMS5003;15344;52.342;-1.290;2023-11-21T04:29:59;2;1;
28026;PMS5003;15344;52.342;-1.290;2023-11-21T04:32:24;1;0;
28026;PMS5003;15344;52.342;-1.290;2023-11-21T04:34:49;0;0;
28026;PMS5003;15344;52.342;-1.290;2023-11-21T04:37:15;1;1;
28026;PMS5003;15344;52.342;-1.290;2023-11-21T04:39:40;2;1;
28026;PMS5003;15344;52.342;-1.290;2023-11-21T04:42:06;1;1;
28026;PMS5003;15344;52.342;-1.290;2023-11-21T04:44:31;0;0;
28026;PMS5003;15344;52.342;-1.290;2023-11-21T04:46:56;4;1;
28026;PMS5003;15344;52.342;-1.290;2023-11-21T04:49:21;3;1;
28026;PMS5003;15344;52.342;-1.290;2023-11-21T04:51:47;1;1;
28026;PMS5003;15344;52.342;-1.290;2023-11-21T04:54:12;0;0;
28026;PMS5003;15344;52.342;-1.290;2023-11-21T04:56:37;1;1;
28026;PMS5003;15344;52.342;-1.290;2023-11-21T04:59:03;2;0;
28026;PMS5003;15344;52.342;-1.290;2023-11-21T05:01:28;4;1;
28026;PMS5003;15344;52.342;-1.290;2023-11-21T05:03:53;0;0;
28026;PMS5003;15344;52.342;-1.290;2023-11-21T05:06:19;1;1;
28026;PMS5003;15344;52.342;-1.290;2023-11-21T05:08:44;3;2;
28026;PMS5003;15344;52.342;-1.290;2023-11-21T05:11:10;0;0;
28026;PMS5003;15344;52.342;-1.290;2023-11-21T05:13:35;1;1;
28026;PMS5003;15344;52.342;-1.290;2023-11-21T05:16:00;0;0;
28026;PMS5003;15344;52.342;-1.290;2023-11-21T05:18:25;0;0;
28026;PMS5003;15344;52.342;-1.290;2023-11-21T05:20:51;0;0;
28026;PMS5003;15344;52.342;-1.290;2023-11-21T05:23:16;0;0;
28026;PMS5003;15344;52.342;-1.290;2023-11-21T05:25:41;0;0;
28026;PMS5003;15344;52.342;-1.290;2023-11-21T05:28:07;1;0;
28026;PMS5003;15344;52.342;-1.290;2023-11-21T05:30:32;0;0;
28026;PMS5003;15344;52.342;-1.290;2023-11-21T05:32:57;0;0;
28026;PMS5003;15344;52.342;-1.290;2023-11-21T05:35:23;0;0;
28026;PMS5003;15344;52.342;-1.290;2023-11-21T05:37:48;1;0;
28026;PMS5003;15344;52.342;-1.290;2023-11-21T05:40:13;0;0;
28026;PMS5003;15344;52.342;-1.290;2023-11-21T05:42:39;1;1;
28026;PMS5003;15344;52.342;-1.290;2023-11-21T05:45:04;0;0;
28026;PMS5003;15344;52.342;-1.290;2023-11-21T05:47:29;0;0;
28026;PMS5003;15344;52.342;-1.290;2023-11-21T05:49:55;0;0;
28026;PMS5003;15344;52.342;-1.290;2023-11-21T05:52:20;2;0;
28026;PMS5003;15344;52.342;-1.290;2023-11-21T05:54:45;2;0;
28026;PMS5003;15344;52.342;-1.290;2023-11-21T05:57:10;0;0;
28026;PMS5003;15344;52.342;-1.290;2023-11-21T05:59:36;0;0;
28026;PMS5003;15344;52.342;-1.290;2023-11-21T06:02:01;1;1;
28026;PMS5003;15344;52.342;-1.290;2023-11-21T06:04:26;2;0;
28026;PMS5003;15344;52.342;-1.290;2023-11-21T06:06:52;0;0;
28026;PMS5003;15344;52.342;-1.290;2023-11-21T06:09:17;3;1;
28026;PMS5003;15344;52.342;-1.290;2023-11-21T06:11:42;1;1;
28026;PMS5003;15344;52.342;-1.290;2023-11-21T06:14:08;0;0;
28026;PMS5003;15344;52.342;-1.290;2023-11-21T06:16:33;0;0;
28026;PMS5003;15344;52.342;-1.290;2023-11-21T06:18:58;0;0;
28026;PMS5003;15344;52.342;-1.290;2023-11-21T06:21:24;0;0;
28026;PMS5003;15344;52.342;-1.290;2023-11-21T06:23:49;0;0;
28026;PMS5003;15344;52.342;-1.290;2023-11-21T06:26:14;0;0;
28026;PMS5003;15344;52.342;-1.290;2023-11-21T06:28:40;0;0;
28026;PMS5003;15344;52.342;-1.290;2023-11-21T06:31:05;0;0;
28026;PMS5003;15344;52.342;-1.290;2023-11-21T06:33:30;0;0;
28026;PMS5003;15344;52.342;-1.290;2023-11-21T06:35:56;1;1;
28026;PMS5003;15344;52.342;-1.290;2023-11-21T06:38:21;1;1;
28026;PMS5003;15344;52.342;-1.290;2023-11-21T06:40:46;1;1;
28026;PMS5003;15344;52.342;-1.290;2023-11-21T06:43:12;3;2;
28026;PMS5003;15344;52.342;-1.290;2023-11-21T06:45:37;2;2;
28026;PMS5003;15344;52.342;-1.290;2023-11-21T06:48:02;1;1;
28026;PMS5003;15344;52.342;-1.290;2023-11-21T06:50:28;1;1;
28026;PMS5003;15344;52.342;-1.290;2023-11-21T06:52:53;0;0;
28026;PMS5003;15344;52.342;-1.290;2023-11-21T06:55:19;0;0;
28026;PMS5003;15344;52.342;-1.290;2023-11-21T06:57:44;2;2;
28026;PMS5003;15344;52.342;-1.290;2023-11-21T07:00:10;3;2;
28026;PMS5003;15344;52.342;-1.290;2023-11-21T07:02:35;2;1;
28026;PMS5003;15344;52.342;-1.290;2023-11-21T07:05:00;2;2;
28026;PMS5003;15344;52.342;-1.290;2023-11-21T07:07:26;3;3;
28026;PMS5003;15344;52.342;-1.290;2023-11-21T07:09:51;2;2;
28026;PMS5003;15344;52.342;-1.290;2023-11-21T07:12:16;1;1;
28026;PMS5003;15344;52.342;-1.290;2023-11-21T07:14:42;4;3;
28026;PMS5003;15344;52.342;-1.290;2023-11-21T07:17:07;3;3;
28026;PMS5003;15344;52.342;-1.290;2023-11-21T07:19:32;2;2;
28026;PMS5003;15344;52.342;-1.290;2023-11-21T07:21:58;4;4;
28026;PMS5003;15344;52.342;-1.290;2023-11-21T07:24:23;4;4;
28026;PMS5003;15344;52.342;-1.290;2023-11-21T07:26:48;1;1;
28026;PMS5003;15344;52.342;-1.290;2023-11-21T07:29:14;2;2;
28026;PMS5003;15344;52.342;-1.290;2023-11-21T07:31:39;2;2;
28026;PMS5003;15344;52.342;-1.290;2023-11-21T07:34:05;1;1;
28026;PMS5003;15344;52.342;-1.290;2023-11-21T07:36:30;2;2;
28026;PMS5003;15344;52.342;-1.290;2023-11-21T07:38:55;2;2;
28026;PMS5003;15344;52.342;-1.290;2023-11-21T07:41:21;6;4;
28026;PMS5003;15344;52.342;-1.290;2023-11-21T07:43:46;3;3;
28026;PMS5003;15344;52.342;-1.290;2023-11-21T07:46:11;4;1;
28026;PMS5003;15344;52.342;-1.290;2023-11-21T07:48:37;5;3;
28026;PMS5003;15344;52.342;-1.290;2023-11-21T07:51:03;2;2;
28026;PMS5003;15344;52.342;-1.290;2023-11-21T07:53:27;3;3;
28026;PMS5003;15344;52.342;-1.290;2023-11-21T07:55:53;2;2;
28026;PMS5003;15344;52.342;-1.290;2023-11-21T07:58:18;2;2;
28026;PMS5003;15344;52.342;-1.290;2023-11-21T08:00:44;2;2;
28026;PMS5003;15344;52.342;-1.290;2023-11-21T08:03:09;2;2;
28026;PMS5003;15344;52.342;-1.290;2023-11-21T08:05:34;4;3;
28026;PMS5003;15344;52.342;-1.290;2023-11-21T08:08:00;2;2;
28026;PMS5003;15344;52.342;-1.290;2023-11-21T08:10:25;4;3;
28026;PMS5003;15344;52.342;-1.290;2023-11-21T08:12:50;4;2;
28026;PMS5003;15344;52.342;-1.290;2023-11-21T08:15:16;2;2;
28026;PMS5003;15344;52.342;-1.290;2023-11-21T08:17:41;2;2;
28026;PMS5003;15344;52.342;-1.290;2023-11-21T08:20:07;2;2;
28026;PMS5003;15344;52.342;-1.290;2023-11-21T08:22:32;3;3;
28026;PMS5003;15344;52.342;-1.290;2023-11-21T08:24:57;5;4;
28026;PMS5003;15344;52.342;-1.290;2023-11-21T08:27:23;3;2;
28026;PMS5003;15344;52.342;-1.290;2023-11-21T08:29:48;2;1;
28026;PMS5003;15344;52.342;-1.290;2023-11-21T08:32:13;4;3;
28026;PMS5003;15344;52.342;-1.290;2023-11-21T08:34:39;5;4;
28026;PMS5003;15344;52.342;-1.290;2023-11-21T08:37:04;6;3;
28026;PMS5003;15344;52.342;-1.290;2023-11-21T08:39:29;2;2;
28026;PMS5003;15344;52.342;-1.290;2023-11-21T08:41:55;3;3;
28026;PMS5003;15344;52.342;-1.290;2023-11-21T08:44:20;1;1;
28026;PMS5003;15344;52.342;-1.290;2023-11-21T08:46:45;1;1;
28026;PMS5003;15344;52.342;-1.290;2023-11-21T08:49:11;3;3;
28026;PMS5003;15344;52.342;-1.290;2023-11-21T08:51:36;2;2;
28026;PMS5003;15344;52.342;-1.290;2023-11-21T08:54:01;4;4;
28026;PMS5003;15344;52.342;-1.290;2023-11-21T08:56:27;5;4;
28026;PMS5003;15344;52.342;-1.290;2023-11-21T08:58:52;5;3;
28026;PMS5003;15344;52.342;-1.290;2023-11-21T09:01:18;3;3;
28026;PMS5003;15344;52.342;-1.290;2023-11-21T09:03:43;5;4;
28026;PMS5003;15344;52.342;-1.290;2023-11-21T09:06:09;3;3;
28026;PMS5003;15344;52.342;-1.290;2023-11-21T09:08:34;1;1;
28026;PMS5003;15344;52.342;-1.290;2023-11-21T09:10:59;2;2;
28026;PMS5003;15344;52.342;-1.290;2023-11-21T09:13:24;2;2;
28026;PMS5003;15344;52.342;-1.290;2023-11-21T09:15:50;5;4;
28026;PMS5003;15344;52.342;-1.290;2023-11-21T09:18:15;3;3;
28026;PMS5003;15344;52.342;-1.290;2023-11-21T09:20:40;3;3;
28026;PMS5003;15344;52.342;-1.290;2023-11-21T09:23:06;2;2;
28026;PMS5003;15344;52.342;-1.290;2023-11-21T09:25:31;2;2;
28026;PMS5003;15344;52.342;-1.290;2023-11-21T09:27:56;2;2;
28026;PMS5003;15344;52.342;-1.290;2023-11-21T09:30:22;2;2;
28026;PMS5003;15344;52.342;-1.290;2023-11-21T09:32:47;1;1;
28026;PMS5003;15344;52.342;-1.290;2023-11-21T09:35:13;1;1;
28026;PMS5003;15344;52.342;-1.290;2023-11-21T09:37:38;2;2;
28026;PMS5003;15344;52.342;-1.290;2023-11-21T09:40:04;0;0;
28026;PMS5003;15344;52.342;-1.290;2023-11-21T09:42:30;0;0;
28026;PMS5003;15344;52.342;-1.290;2023-11-21T09:45:00;0;0;
28026;PMS5003;15344;52.342;-1.290;2023-11-21T09:47:19;0;0;
28026;PMS5003;15344;52.342;-1.290;2023-11-21T09:49:46;1;1;
28026;PMS5003;15344;52.342;-1.290;2023-11-21T09:52:10;0;0;
28026;PMS5003;15344;52.342;-1.290;2023-11-21T09:54:35;0;0;
28026;PMS5003;15344;52.342;-1.290;2023-11-21T09:57:01;0;0;
28026;PMS5003;15344;52.342;-1.290;2023-11-21T09:59:27;0;0;
28026;PMS5003;15344;52.342;-1.290;2023-11-21T10:01:52;0;0;
28026;PMS5003;15344;52.342;-1.290;2023-11-21T10:04:17;0;0;
28026;PMS5003;15344;52.342;-1.290;2023-11-21T10:06:42;1;1;
28026;PMS5003;15344;52.342;-1.290;2023-11-21T10:09:08;3;1;
28026;PMS5003;15344;52.342;-1.290;2023-11-21T10:11:33;1;1;
28026;PMS5003;15344;52.342;-1.290;2023-11-21T10:13:58;2;2;
28026;PMS5003;15344;52.342;-1.290;2023-11-21T10:16:23;2;2;
28026;PMS5003;15344;52.342;-1.290;2023-11-21T10:18:49;4;2;
28026;PMS5003;15344;52.342;-1.290;2023-11-21T10:21:14;2;2;
28026;PMS5003;15344;52.342;-1.290;2023-11-21T10:23:39;2;2;
28026;PMS5003;15344;52.342;-1.290;2023-11-21T10:26:05;1;0;
28026;PMS5003;15344;52.342;-1.290;2023-11-21T10:28:30;1;1;
28026;PMS5003;15344;52.342;-1.290;2023-11-21T10:30:55;5;2;
28026;PMS5003;15344;52.342;-1.290;2023-11-21T10:35:47;3;2;
28026;PMS5003;15344;52.342;-1.290;2023-11-21T10:38:11;3;2;
28026;PMS5003;15344;52.342;-1.290;2023-11-21T10:40:37;2;1;
28026;PMS5003;15344;52.342;-1.290;2023-11-21T10:43:05;1;1;
28026;PMS5003;15344;52.342;-1.290;2023-11-21T10:45:27;1;1;
28026;PMS5003;15344;52.342;-1.290;2023-11-21T10:47:53;1;0;
28026;PMS5003;15344;52.342;-1.290;2023-11-21T10:50:18;1;1;
28026;PMS5003;15344;52.342;-1.290;2023-11-21T10:52:44;4;2;
28026;PMS5003;15344;52.342;-1.290;2023-11-21T10:57:34;3;2;
28026;PMS5003;15344;52.342;-1.290;2023-11-21T11:00:00;3;3;
28026;PMS5003;15344;52.342;-1.290;2023-11-21T11:02:25;5;3;
28026;PMS5003;15344;52.342;-1.290;2023-11-21T11:04:50;3;2;
28026;PMS5003;15344;52.342;-1.290;2023-11-21T11:07:16;2;1;
28026;PMS5003;15344;52.342;-1.290;2023-11-21T11:09:41;2;2;
28026;PMS5003;15344;52.342;-1.290;2023-11-21T11:12:07;2;2;
28026;PMS5003;15344;52.342;-1.290;2023-11-21T11:14:32;3;2;
28026;PMS5003;15344;52.342;-1.290;2023-11-21T11:16:57;1;1;
28026;PMS5003;15344;52.342;-1.290;2023-11-21T11:19:22;1;1;
28026;PMS5003;15344;52.342;-1.290;2023-11-21T11:21:50;4;3;
28026;PMS5003;15344;52.342;-1.290;2023-11-21T11:26:41;4;2;
28026;PMS5003;15344;52.342;-1.290;2023-11-21T11:29:07;5;3;
28026;PMS5003;15344;52.342;-1.290;2023-11-21T11:31:33;4;2;
28026;PMS5003;15344;52.342;-1.290;2023-11-21T11:33:57;2;2;
28026;PMS5003;15344;52.342;-1.290;2023-11-21T11:36:22;3;1;
28026;PMS5003;15344;52.342;-1.290;2023-11-21T11:38:46;2;2;
28026;PMS5003;15344;52.342;-1.290;2023-11-21T11:41:11;5;1;
28026;PMS5003;15344;52.342;-1.290;2023-11-21T11:43:36;3;2;
28026;PMS5003;15344;52.342;-1.290;2023-11-21T11:46:03;4;3;
28026;PMS5003;15344;52.342;-1.290;2023-11-21T11:48:27;4;4;
28026;PMS5003;15344;52.342;-1.290;2023-11-21T11:53:18;2;2;
28026;PMS5003;15344;52.342;-1.290;2023-11-21T11:55:43;4;3;
28026;PMS5003;15344;52.342;-1.290;2023-11-21T11:58:09;5;2;
28026;PMS5003;15344;52.342;-1.290;2023-11-21T12:00:34;2;2;
28026;PMS5003;15344;52.342;-1.290;2023-11-21T12:03:00;5;4;
28026;PMS5003;15344;52.342;-1.290;2023-11-21T12:05:25;3;1;
28026;PMS5003;15344;52.342;-1.290;2023-11-21T12:07:50;1;1;
28026;PMS5003;15344;52.342;-1.290;2023-11-21T12:10:16;3;2;
28026;PMS5003;15344;52.342;-1.290;2023-11-21T12:12:42;2;2;
28026;PMS5003;15344;52.342;-1.290;2023-11-21T12:15:06;4;3;
28026;PMS5003;15344;52.342;-1.290;2023-11-21T12:17:32;3;3;
28026;PMS5003;15344;52.342;-1.290;2023-11-21T12:20:01;3;2;
28026;PMS5003;15344;52.342;-1.290;2023-11-21T12:22:23;1;1;
28026;PMS5003;15344;52.342;-1.290;2023-11-21T12:24:48;4;3;
28026;PMS5003;15344;52.342;-1.290;2023-11-21T12:27:13;2;2;
28026;PMS5003;15344;52.342;-1.290;2023-11-21T12:29:40;2;2;
28026;PMS5003;15344;52.342;-1.290;2023-11-21T12:32:04;2;2;
28026;PMS5003;15344;52.342;-1.290;2023-11-21T12:34:29;5;3;
28026;PMS5003;15344;52.342;-1.290;2023-11-21T12:36:54;6;4;
28026;PMS5003;15344;52.342;-1.290;2023-11-21T12:39:20;2;1;
28026;PMS5003;15344;52.342;-1.290;2023-11-21T12:41:45;4;2;
28026;PMS5003;15344;52.342;-1.290;2023-11-21T12:44:12;1;1;
28026;PMS5003;15344;52.342;-1.290;2023-11-21T12:46:36;1;1;
28026;PMS5003;15344;52.342;-1.290;2023-11-21T12:49:01;3;1;
28026;PMS5003;15344;52.342;-1.290;2023-11-21T12:51:27;2;2;
28026;PMS5003;15344;52.342;-1.290;2023-11-21T12:53:52;3;1;
28026;PMS5003;15344;52.342;-1.290;2023-11-21T12:56:17;2;2;
28026;PMS5003;15344;52.342;-1.290;2023-11-21T12:58:44;3;3;
28026;PMS5003;15344;52.342;-1.290;2023-11-21T13:01:08;2;1;
28026;PMS5003;15344;52.342;-1.290;2023-11-21T13:03:33;2;2;
28026;PMS5003;15344;52.342;-1.290;2023-11-21T13:05:58;7;1;
28026;PMS5003;15344;52.342;-1.290;2023-11-21T13:08:24;1;1;
28026;PMS5003;15344;52.342;-1.290;2023-11-21T13:10:49;2;2;
28026;PMS5003;15344;52.342;-1.290;2023-11-21T13:13:14;4;2;
28026;PMS5003;15344;52.342;-1.290;2023-11-21T13:15:40;5;1;
28026;PMS5003;15344;52.342;-1.290;2023-11-21T13:18:05;3;1;
28026;PMS5003;15344;52.342;-1.290;2023-11-21T13:20:30;3;2;
28026;PMS5003;15344;52.342;-1.290;2023-11-21T13:22:56;0;0;
28026;PMS5003;15344;52.342;-1.290;2023-11-21T13:25:21;3;3;
28026;PMS5003;15344;52.342;-1.290;2023-11-21T13:27:46;0;0;
28026;PMS5003;15344;52.342;-1.290;2023-11-21T13:30:12;1;1;
28026;PMS5003;15344;52.342;-1.290;2023-11-21T13:32:37;1;1;
28026;PMS5003;15344;52.342;-1.290;2023-11-21T13:35:02;1;0;
28026;PMS5003;15344;52.342;-1.290;2023-11-21T13:37:27;0;0;
28026;PMS5003;15344;52.342;-1.290;2023-11-21T13:39:53;2;1;
28026;PMS5003;15344;52.342;-1.290;2023-11-21T13:42:18;0;0;
28026;PMS5003;15344;52.342;-1.290;2023-11-21T13:44:43;2;0;
28026;PMS5003;15344;52.342;-1.290;2023-11-21T13:47:09;2;2;
28026;PMS5003;15344;52.342;-1.290;2023-11-21T13:49:34;1;0;
28026;PMS5003;15344;52.342;-1.290;2023-11-21T13:51:59;0;0;
28026;PMS5003;15344;52.342;-1.290;2023-11-21T13:54:25;0;0;
28026;PMS5003;15344;52.342;-1.290;2023-11-21T13:56:50;2;0;
28026;PMS5003;15344;52.342;-1.290;2023-11-21T13:59:15;0;0;
28026;PMS5003;15344;52.342;-1.290;2023-11-21T14:01:41;1;1;
28026;PMS5003;15344;52.342;-1.290;2023-11-21T14:04:06;1;1;
28026;PMS5003;15344;52.342;-1.290;2023-11-21T14:06:31;3;1;
28026;PMS5003;15344;52.342;-1.290;2023-11-21T14:08:57;1;1;
28026;PMS5003;15344;52.342;-1.290;2023-11-21T14:11:22;1;1;
28026;PMS5003;15344;52.342;-1.290;2023-11-21T14:13:47;3;1;
28026;PMS5003;15344;52.342;-1.290;2023-11-21T14:16:13;4;2;
28026;PMS5003;15344;52.342;-1.290;2023-11-21T14:18:38;3;1;
28026;PMS5003;15344;52.342;-1.290;2023-11-21T14:21:03;2;2;
28026;PMS5003;15344;52.342;-1.290;2023-11-21T14:23:29;1;1;
28026;PMS5003;15344;52.342;-1.290;2023-11-21T14:25:54;2;2;
28026;PMS5003;15344;52.342;-1.290;2023-11-21T14:28:19;1;1;
28026;PMS5003;15344;52.342;-1.290;2023-11-21T14:30:45;2;2;
28026;PMS5003;15344;52.342;-1.290;2023-11-21T14:33:10;2;1;
28026;PMS5003;15344;52.342;-1.290;2023-11-21T14:35:35;2;2;
28026;PMS5003;15344;52.342;-1.290;2023-11-21T14:38:00;3;2;
28026;PMS5003;15344;52.342;-1.290;2023-11-21T14:40:26;5;3;
28026;PMS5003;15344;52.342;-1.290;2023-11-21T14:42:51;6;4;
28026;PMS5003;15344;52.342;-1.290;2023-11-21T14:45:16;2;2;
28026;PMS5003;15344;52.342;-1.290;2023-11-21T14:47:41;6;5;
28026;PMS5003;15344;52.342;-1.290;2023-11-21T14:50:07;3;3;
28026;PMS5003;15344;52.342;-1.290;2023-11-21T14:52:32;4;4;
28026;PMS5003;15344;52.342;-1.290;2023-11-21T14:54:58;5;3;
28026;PMS5003;15344;52.342;-1.290;2023-11-21T14:57:23;5;3;
28026;PMS5003;15344;52.342;-1.290;2023-11-21T14:59:49;4;3;
28026;PMS5003;15344;52.342;-1.290;2023-11-21T15:02:14;3;1;
28026;PMS5003;15344;52.342;-1.290;2023-11-21T15:04:39;3;3;
28026;PMS5003;15344;52.342;-1.290;2023-11-21T15:07:04;2;2;
28026;PMS5003;15344;52.342;-1.290;2023-11-21T15:09:29;2;1;
28026;PMS5003;15344;52.342;-1.290;2023-11-21T15:11:55;5;2;
28026;PMS5003;15344;52.342;-1.290;2023-11-21T15:14:20;3;2;
28026;PMS5003;15344;52.342;-1.290;2023-11-21T15:16:46;4;4;
28026;PMS5003;15344;52.342;-1.290;2023-11-21T15:19:11;4;3;
28026;PMS5003;15344;52.342;-1.290;2023-11-21T15:21:36;0;0;
28026;PMS5003;15344;52.342;-1.290;2023-11-21T15:24:01;3;1;
28026;PMS5003;15344;52.342;-1.290;2023-11-21T15:26:27;1;1;
28026;PMS5003;15344;52.342;-1.290;2023-11-21T15:28:52;3;1;
28026;PMS5003;15344;52.342;-1.290;2023-11-21T15:31:17;3;1;
28026;PMS5003;15344;52.342;-1.290;2023-11-21T15:33:43;3;1;
28026;PMS5003;15344;52.342;-1.290;2023-11-21T15:36:08;2;2;
28026;PMS5003;15344;52.342;-1.290;2023-11-21T15:38:33;2;2;
28026;PMS5003;15344;52.342;-1.290;2023-11-21T15:40:59;6;2;
28026;PMS5003;15344;52.342;-1.290;2023-11-21T15:43:24;1;1;
28026;PMS5003;15344;52.342;-1.290;2023-11-21T15:45:49;3;3;
28026;PMS5003;15344;52.342;-1.290;2023-11-21T15:48:15;2;2;
28026;PMS5003;15344;52.342;-1.290;2023-11-21T15:50:40;1;1;
28026;PMS5003;15344;52.342;-1.290;2023-11-21T15:53:05;3;3;
28026;PMS5003;15344;52.342;-1.290;2023-11-21T15:55:31;3;2;
28026;PMS5003;15344;52.342;-1.290;2023-11-21T15:57:56;3;3;
28026;PMS5003;15344;52.342;-1.290;2023-11-21T16:00:21;3;3;
28026;PMS5003;15344;52.342;-1.290;2023-11-21T16:02:47;2;2;
28026;PMS5003;15344;52.342;-1.290;2023-11-21T16:05:12;7;4;
28026;PMS5003;15344;52.342;-1.290;2023-11-21T16:07:37;2;2;
28026;PMS5003;15344;52.342;-1.290;2023-11-21T16:10:03;2;2;
28026;PMS5003;15344;52.342;-1.290;2023-11-21T16:12:28;3;3;
28026;PMS5003;15344;52.342;-1.290;2023-11-21T16:14:53;5;3;
28026;PMS5003;15344;52.342;-1.290;2023-11-21T16:17:19;5;2;
28026;PMS5003;15344;52.342;-1.290;2023-11-21T16:19:44;3;3;
28026;PMS5003;15344;52.342;-1.290;2023-11-21T16:22:10;3;2;
28026;PMS5003;15344;52.342;-1.290;2023-11-21T16:24:35;3;3;
28026;PMS5003;15344;52.342;-1.290;2023-11-21T16:27:00;5;3;